Wetterdaten: Woche 12.06.06 - 18.06.06 (KW24)
Datum Zeit Temperatur Luftfeuchte Luftdruck Windrichtung Wind
12.06.2006 00:00 14,6 C 53 % 1025 hPa N 13,1 km/h (3 Bft)
12.06.2006 01:00 13,7 C 56 % 1025 hPa N 12,1 km/h (2 Bft)
12.06.2006 02:00 12,7 C 61 % 1025 hPa N 9,9 km/h (2 Bft)
12.06.2006 03:00 11,5 C 68 % 1025 hPa NW 8,4 km/h (2 Bft)
12.06.2006 04:00 10,7 C 71 % 1024 hPa NW 7,3 km/h (2 Bft)
12.06.2006 05:00 9,9 C 75 % 1024 hPa N-NW 7,0 km/h (2 Bft)
12.06.2006 06:00 10,1 C 78 % 1025 hPa W 2,4 km/h (1 Bft)
12.06.2006 07:00 11,8 C 73 % 1025 hPa N-NO 7,1 km/h (2 Bft)
12.06.2006 08:00 13,9 C 66 % 1025 hPa NO 7,0 km/h (2 Bft)
12.06.2006 09:00 16,2 C 59 % 1025 hPa O-NO 3,9 km/h (1 Bft)
12.06.2006 10:00 19,0 C 51 % 1025 hPa S 5,1 km/h (1 Bft)
12.06.2006 11:00 21,4 C 45 % 1025 hPa N-NO 8,0 km/h (2 Bft)
12.06.2006 12:00 23,1 C 41 % 1025 hPa O 7,4 km/h (2 Bft)
12.06.2006 13:00 24,6 C 36 % 1025 hPa O-SO 8,7 km/h (2 Bft)
12.06.2006 14:00 25,6 C 32 % 1024 hPa O 9,0 km/h (2 Bft)
12.06.2006 15:00 26,8 C 29 % 1024 hPa O-SO 7,1 km/h (2 Bft)
12.06.2006 16:00 27,2 C 31 % 1024 hPa O-NO 10,2 km/h (2 Bft)
12.06.2006 17:00 27,2 C 32 % 1023 hPa NO 11,5 km/h (2 Bft)
12.06.2006 18:00 27,2 C 31 % 1023 hPa O 10,5 km/h (2 Bft)
12.06.2006 19:00 25,7 C 32 % 1023 hPa O 10,9 km/h (2 Bft)
12.06.2006 20:00 23,7 C 36 % 1023 hPa O-NO 7,3 km/h (2 Bft)
12.06.2006 21:00 20,6 C 46 % 1023 hPa N 0,5 km/h (0 Bft)
12.06.2006 22:00 17,8 C 54 % 1023 hPa W-NW 2,1 km/h (1 Bft)
12.06.2006 23:00 16,8 C 52 % 1023 hPa W-NW 3,5 km/h (1 Bft)
13.06.2006 00:00 16,0 C 53 % 1023 hPa NW 8,3 km/h (2 Bft)
13.06.2006 01:00 15,3 C 54 % 1023 hPa W-NW 7,9 km/h (2 Bft)
13.06.2006 02:00 14,6 C 57 % 1023 hPa NW 6,1 km/h (2 Bft)
13.06.2006 03:00 13,4 C 63 % 1023 hPa N 0,0 km/h (0 Bft)
13.06.2006 04:00 12,4 C 68 % 1023 hPa N 0,0 km/h (0 Bft)
13.06.2006 05:00 11,3 C 73 % 1023 hPa N 0,0 km/h (0 Bft)
13.06.2006 06:00 11,2 C 77 % 1024 hPa N 0,0 km/h (0 Bft)
13.06.2006 07:00 12,8 C 77 % 1024 hPa N 0,0 km/h (0 Bft)
13.06.2006 08:00 15,6 C 65 % 1024 hPa N 0,0 km/h (0 Bft)
13.06.2006 09:00 18,5 C 56 % 1024 hPa SO 1,4 km/h (1 Bft)
13.06.2006 10:00 21,7 C 49 % 1024 hPa O 6,3 km/h (2 Bft)
13.06.2006 11:00 24,6 C 39 % 1023 hPa O 6,1 km/h (2 Bft)
13.06.2006 12:00 26,4 C 32 % 1023 hPa SO 7,1 km/h (2 Bft)
13.06.2006 13:00 26,9 C 31 % 1023 hPa W 9,7 km/h (2 Bft)
13.06.2006 14:00 27,7 C 29 % 1022 hPa W 9,2 km/h (2 Bft)
13.06.2006 15:00 28,6 C 25 % 1022 hPa O 12,2 km/h (2 Bft)
13.06.2006 16:00 29,0 C 25 % 1021 hPa N-NO 11,1 km/h (2 Bft)
13.06.2006 17:00 28,9 C 25 % 1021 hPa N 11,8 km/h (2 Bft)
13.06.2006 18:00 28,6 C 24 % 1020 hPa O-NO 8,9 km/h (2 Bft)
13.06.2006 19:00 27,5 C 24 % 1020 hPa N-NO 8,9 km/h (2 Bft)
13.06.2006 20:00 24,9 C 30 % 1020 hPa N 3,0 km/h (1 Bft)
13.06.2006 21:00 21,3 C 38 % 1020 hPa N 0,0 km/h (0 Bft)
13.06.2006 22:00 18,7 C 45 % 1020 hPa N 0,0 km/h (0 Bft)
13.06.2006 23:00 17,2 C 49 % 1020 hPa W-NW 0,2 km/h (0 Bft)
14.06.2006 00:00 16,3 C 54 % 1020 hPa W-NW 1,6 km/h (1 Bft)
14.06.2006 01:00 15,7 C 58 % 1020 hPa W-NW 2,9 km/h (1 Bft)
14.06.2006 02:00 15,0 C 60 % 1020 hPa W 1,1 km/h (1 Bft)
14.06.2006 03:00 13,7 C 66 % 1020 hPa N 0,0 km/h (0 Bft)
14.06.2006 04:00 12,5 C 72 % 1019 hPa N 0,0 km/h (0 Bft)
14.06.2006 05:00 11,7 C 76 % 1020 hPa N 0,0 km/h (0 Bft)
14.06.2006 06:00 11,8 C 79 % 1020 hPa N 0,0 km/h (0 Bft)
14.06.2006 07:00 13,5 C 78 % 1020 hPa N 0,0 km/h (0 Bft)
14.06.2006 08:00 16,4 C 69 % 1019 hPa S-SW 3,0 km/h (1 Bft)
14.06.2006 09:00 20,0 C 54 % 1019 hPa S 10,4 km/h (2 Bft)
14.06.2006 10:00 23,3 C 44 % 1019 hPa S 11,0 km/h (2 Bft)
14.06.2006 11:00 25,9 C 36 % 1019 hPa S-SW 8,7 km/h (2 Bft)
14.06.2006 12:00 27,5 C 30 % 1018 hPa S-SW 7,7 km/h (2 Bft)
14.06.2006 13:00 28,2 C 28 % 1018 hPa W 9,1 km/h (2 Bft)
14.06.2006 14:00 28,6 C 29 % 1018 hPa SW 7,8 km/h (2 Bft)
14.06.2006 15:00 29,4 C 27 % 1017 hPa O-SO 9,7 km/h (2 Bft)
14.06.2006 16:00 29,2 C 27 % 1017 hPa W 6,9 km/h (2 Bft)
14.06.2006 17:00 29,6 C 27 % 1016 hPa O 6,7 km/h (2 Bft)
14.06.2006 18:00 28,8 C 29 % 1016 hPa O-NO 2,5 km/h (1 Bft)
14.06.2006 19:00 26,9 C 41 % 1016 hPa W 5,1 km/h (1 Bft)
14.06.2006 20:00 24,6 C 46 % 1016 hPa W 0,5 km/h (0 Bft)
14.06.2006 21:00 22,2 C 53 % 1017 hPa W 0,9 km/h (0 Bft)
14.06.2006 22:00 20,3 C 61 % 1017 hPa N 0,0 km/h (0 Bft)
14.06.2006 23:00 18,9 C 68 % 1017 hPa N 0,0 km/h (0 Bft)
15.06.2006 00:00 17,7 C 70 % 1017 hPa N 0,0 km/h (0 Bft)
15.06.2006 01:00 16,7 C 72 % 1017 hPa N 0,0 km/h (0 Bft)
15.06.2006 02:00 15,9 C 73 % 1017 hPa N 0,0 km/h (0 Bft)
15.06.2006 03:00 15,1 C 74 % 1017 hPa N 0,0 km/h (0 Bft)
15.06.2006 04:00 14,4 C 78 % 1017 hPa N 0,0 km/h (0 Bft)
15.06.2006 05:00 13,7 C 82 % 1017 hPa N 0,0 km/h (0 Bft)
15.06.2006 06:00 13,9 C 85 % 1017 hPa N 0,0 km/h (0 Bft)
15.06.2006 07:00 16,1 C 81 % 1017 hPa N 0,0 km/h (0 Bft)
15.06.2006 08:00 18,6 C 68 % 1018 hPa N 0,0 km/h (0 Bft)
15.06.2006 09:00 21,3 C 54 % 1018 hPa S 7,9 km/h (2 Bft)
15.06.2006 10:00 24,4 C 44 % 1018 hPa S-SW 8,9 km/h (2 Bft)
15.06.2006 11:00 26,7 C 38 % 1018 hPa S-SW 6,5 km/h (2 Bft)
15.06.2006 12:00 28,6 C 32 % 1018 hPa S-SW 7,6 km/h (2 Bft)
15.06.2006 13:00 29,8 C 31 % 1018 hPa W-SW 8,0 km/h (2 Bft)
15.06.2006 14:00 30,5 C 30 % 1017 hPa S 5,9 km/h (2 Bft)
15.06.2006 15:00 30,4 C 29 % 1017 hPa W 6,0 km/h (2 Bft)
15.06.2006 16:00 31,0 C 25 % 1017 hPa W 7,1 km/h (2 Bft)
15.06.2006 17:00 31,7 C 22 % 1016 hPa O-NO 5,3 km/h (1 Bft)
15.06.2006 18:00 31,8 C 22 % 1016 hPa S-SW 1,2 km/h (1 Bft)
15.06.2006 19:00 30,3 C 27 % 1016 hPa N-NO 5,6 km/h (1 Bft)
15.06.2006 20:00 26,8 C 39 % 1016 hPa O 3,7 km/h (1 Bft)
15.06.2006 21:00 23,2 C 48 % 1016 hPa N 0,0 km/h (0 Bft)
15.06.2006 22:00 21,4 C 53 % 1017 hPa W-NW 3,3 km/h (1 Bft)
15.06.2006 23:00 20,3 C 59 % 1016 hPa N 0,0 km/h (0 Bft)
16.06.2006 00:00 19,2 C 63 % 1017 hPa W 2,0 km/h (1 Bft)
16.06.2006 01:00 18,0 C 68 % 1017 hPa S-SW 1,1 km/h (0 Bft)
16.06.2006 02:00 16,9 C 74 % 1017 hPa N 0,0 km/h (0 Bft)
16.06.2006 03:00 16,2 C 79 % 1017 hPa N 0,0 km/h (0 Bft)
16.06.2006 04:00 15,7 C 81 % 1017 hPa N 0,0 km/h (0 Bft)
16.06.2006 05:00 15,4 C 83 % 1017 hPa N 0,0 km/h (0 Bft)
16.06.2006 06:00 15,5 C 86 % 1018 hPa N 0,0 km/h (0 Bft)
16.06.2006 07:00 18,0 C 74 % 1018 hPa S-SW 5,2 km/h (1 Bft)
16.06.2006 08:00 20,6 C 63 % 1018 hPa O 10,4 km/h (2 Bft)
16.06.2006 09:00 22,5 C 50 % 1018 hPa S-SW 13,1 km/h (3 Bft)
16.06.2006 10:00 24,3 C 40 % 1018 hPa S-SW 13,9 km/h (3 Bft)
16.06.2006 11:00 25,3 C 37 % 1018 hPa S-SW 12,6 km/h (3 Bft)
16.06.2006 12:00 26,2 C 33 % 1017 hPa S-SW 12,5 km/h (3 Bft)
16.06.2006 13:00 27,3 C 33 % 1017 hPa SW 14,1 km/h (3 Bft)
16.06.2006 14:00 27,2 C 33 % 1017 hPa W-SW 13,8 km/h (3 Bft)
16.06.2006 15:00 27,4 C 33 % 1017 hPa W-SW 16,3 km/h (3 Bft)
16.06.2006 16:00 28,0 C 32 % 1016 hPa W-SW 17,0 km/h (3 Bft)
16.06.2006 17:00 27,6 C 34 % 1016 hPa W 13,6 km/h (3 Bft)
16.06.2006 18:00 25,0 C 45 % 1016 hPa W-SW 8,8 km/h (2 Bft)
16.06.2006 19:00 23,5 C 47 % 1016 hPa SW 10,0 km/h (2 Bft)
16.06.2006 20:00 22,7 C 48 % 1016 hPa S-SW 16,5 km/h (3 Bft)
16.06.2006 21:00 21,0 C 54 % 1016 hPa S-SW 16,9 km/h (3 Bft)
16.06.2006 22:00 20,3 C 56 % 1017 hPa S-SW 14,2 km/h (3 Bft)
16.06.2006 23:00 19,1 C 62 % 1017 hPa S-SW 4,8 km/h (1 Bft)
17.06.2006 00:00 18,3 C 65 % 1017 hPa S-SW 2,7 km/h (1 Bft)
17.06.2006 01:00 17,8 C 69 % 1017 hPa O 0,7 km/h (0 Bft)
17.06.2006 02:00 16,8 C 75 % 1017 hPa S-SW 0,7 km/h (0 Bft)
17.06.2006 03:00 16,2 C 80 % 1017 hPa N 0,0 km/h (0 Bft)
17.06.2006 04:00 16,6 C 83 % 1018 hPa N 0,0 km/h (0 Bft)
17.06.2006 05:00 16,4 C 85 % 1018 hPa S 1,7 km/h (1 Bft)
17.06.2006 06:00 16,6 C 89 % 1018 hPa N 0,0 km/h (0 Bft)
17.06.2006 07:00 17,5 C 86 % 1019 hPa NW 0,5 km/h (0 Bft)
17.06.2006 08:00 18,3 C 82 % 1019 hPa S 2,7 km/h (1 Bft)
17.06.2006 09:00 18,8 C 83 % 1019 hPa S-SW 13,1 km/h (3 Bft)
17.06.2006 10:00 20,1 C 78 % 1019 hPa S 11,3 km/h (2 Bft)
17.06.2006 11:00 22,3 C 59 % 1019 hPa SW 14,7 km/h (3 Bft)
17.06.2006 12:00 24,2 C 50 % 1019 hPa S-SW 15,9 km/h (3 Bft)
17.06.2006 13:00 25,2 C 48 % 1018 hPa W-SW 10,7 km/h (2 Bft)
17.06.2006 14:00 23,2 C 60 % 1018 hPa W 6,7 km/h (2 Bft)
17.06.2006 15:00 23,4 C 65 % 1018 hPa N 13,0 km/h (3 Bft)
17.06.2006 16:00 24,3 C 57 % 1018 hPa N-NW 8,1 km/h (2 Bft)
17.06.2006 17:00 21,7 C 74 % 1018 hPa N 4,3 km/h (1 Bft)
17.06.2006 18:00 20,7 C 83 % 1017 hPa N 0,0 km/h (0 Bft)
17.06.2006 19:00 20,9 C 81 % 1017 hPa N 0,2 km/h (0 Bft)
17.06.2006 20:00 20,5 C 82 % 1017 hPa N 0,0 km/h (0 Bft)
17.06.2006 21:00 19,1 C 87 % 1018 hPa N 0,0 km/h (0 Bft)
17.06.2006 22:00 18,1 C 90 % 1018 hPa N 0,0 km/h (0 Bft)
17.06.2006 23:00 17,1 C 93 % 1018 hPa N 0,0 km/h (0 Bft)
18.06.2006 00:00 17,0 C 95 % 1019 hPa N 0,0 km/h (0 Bft)
18.06.2006 01:00 16,7 C 96 % 1019 hPa N 0,0 km/h (0 Bft)
18.06.2006 02:00 16,3 C 97 % 1019 hPa N 0,4 km/h (0 Bft)
18.06.2006 03:00 16,1 C 97 % 1019 hPa N 0,0 km/h (0 Bft)
18.06.2006 04:00 15,8 C 98 % 1019 hPa N 0,0 km/h (0 Bft)
18.06.2006 05:00 15,6 C 98 % 1019 hPa N 0,0 km/h (0 Bft)
18.06.2006 06:00 16,0 C 98 % 1019 hPa N 0,0 km/h (0 Bft)
18.06.2006 07:00 17,0 C 100 % 1018 hPa N 0,0 km/h (0 Bft)
18.06.2006 08:00 17,9 C 99 % 1019 hPa SW 0,4 km/h (0 Bft)
18.06.2006 09:00 18,9 C 87 % 1019 hPa S-SW 7,5 km/h (2 Bft)
18.06.2006 10:00 21,6 C 70 % 1018 hPa S-SW 5,1 km/h (1 Bft)
18.06.2006 11:00 24,9 C 54 % 1018 hPa S 7,9 km/h (2 Bft)
18.06.2006 12:00 26,8 C 42 % 1018 hPa W 9,9 km/h (2 Bft)
18.06.2006 13:00 28,1 C 36 % 1018 hPa W 8,5 km/h (2 Bft)
18.06.2006 14:00 29,4 C 33 % 1017 hPa S-SO 9,6 km/h (2 Bft)
18.06.2006 15:00 30,0 C 31 % 1017 hPa W 11,5 km/h (2 Bft)
18.06.2006 16:00 30,6 C 29 % 1016 hPa S 10,7 km/h (2 Bft)
18.06.2006 17:00 31,2 C 26 % 1015 hPa W 7,9 km/h (2 Bft)
18.06.2006 18:00 31,3 C 26 % 1015 hPa W 4,7 km/h (1 Bft)
18.06.2006 19:00 29,7 C 33 % 1015 hPa W 0,4 km/h (0 Bft)
18.06.2006 20:00 25,5 C 44 % 1016 hPa W-SW 16,4 km/h (3 Bft)
18.06.2006 21:00 21,9 C 48 % 1018 hPa S-SW 21,6 km/h (4 Bft)
18.06.2006 22:00 19,8 C 67 % 1018 hPa N-NO 6,1 km/h (2 Bft)
18.06.2006 23:00 18,6 C 79 % 1018 hPa S-SO 0,5 km/h (0 Bft)
Min-Datum _ 12.06.06 15.06.06 15.06.06 - 12.06.06
_ Min-Zeit 05:46 17:23 19:32 - 00:25
Minimum _ 9,7 C 21 % 1015 hPa - 0,0 km/h (0 Bft)
Max-Datum _ 15.06.06 18.06.06 12.06.06 - 18.06.06
_ Max-Zeit 18:11 07:20 00:00 - 20:26
Maximum _ 32,1 C 100 % 1025 hPa - 51,4 km/h
W-SW (7 Bft)
Durchschnitt _ 21,1 C 56 % 1020 hPa S-SW 5,5 km/h (1 Bft)

Durchschnitt Minimum Temp.20,4 C
Durchschnitt Maximum Temp.21,8 C